Casper, WY

12:25 PM MDT on September 23, 2014 (GMT -0600)
North of Casper, WY | Change Station
CLOSE
Current Station
Personal Weather Station
Location: Bar Nunn, WY
Elevation: 5276 ft
Nearby Weather Stations

Elev 5276 ft 42.91 °N, 106.35 °W | Updated 14 seconds ago

Clear
Clear
75.9 °F
Feels Like 77 °F
N
3.5
Wind Variable Wind from North
Gusts 7.3 mph

Today
High -- | Low -- °F
--% Chance of Precip.
Yesterday
High -- | Low -- °F
Precip. -- in
6:53 AM 7:00 PM
Waning Crescent, 0% visible
Pressure 29.93 in
Visibility 10.0 miles
Clouds Few 7000 ft
Heat Index 77 °F
Dew Point 45 °F
Humidity 33%
Rainfall 0.00 in
Snow Depth 0 in , 1 in , 0 in
UV 6 out of 12
Pollen 5.70 out of 12
Air Quality Not available.
Flu Activity Not available.
METAR KCPR 231753Z 27011G16KT 10SM FEW070 24/04 A3011 RMK AO2 WSHFT 1718 SLP133 T02440039 10250 20111 58000

More Conditions Fewer Conditions

Pressure 29.93 in
Visibility 10.0 miles
Clouds Few 7000 ft
Heat Index 77 °F
Dew Point 45 °F
Humidity 33%
Rainfall 0.00 in
Snow Depth 0 in , 1 in , 0 in
UV 6 out of 12
Pollen 5.70 out of 12
Air Quality Not available.
Flu Activity Not available.
METAR KCPR 231753Z 27011G16KT 10SM FEW070 24/04 A3011 RMK AO2 WSHFT 1718 SLP133 T02440039 10250 20111 58000

More Conditions Fewer Conditions

10-Day Weather Forecast

Almanac

Astronomy

Sep. 23, 2014 Rise Set
Actual Time 6:53 AM MDT 7:00 PM MDT
Civil Twilight 6:25 AM MDT 7:28 PM MDT
Nautical Twilight 5:52 AM MDT 8:01 PM MDT
Astronomical Twilight 5:18 AM MDT 8:35 PM MDT
Moon 6:20 AM MDT 6:40 PM MDT
Length of Visible Light 13h 03m
Length of Day
12h 06m
Tomorrow will be 2m 53s shorter.
Waning Crescent, 0% of the Moon is Illuminated
Today
Waning Crescent
Sep 24
New
Oct 1
First Quarter
Oct 8
Full
Oct 15
Last Quarter

Today's Extremes

State Highs State Lows

Community

WunderPhotos

Upload Photos

1,755,771 photos uploaded!

Nearby

Snow Depth

Station Depth Elevation
Casper Mountain 0 in 7850 ft
North French Creek 1 in 10130 ft
Townsend Creek 0 in 8700 ft
Spring Creek Divide 0 in 9000 ft
Thumb Divide 0 in 7980 ft

Earthquake Activity

City Distance Mag. Time & Date
No recent earthquake activity has been reported nearby.
Minimum magnitude displayed is 2.5.

Coastal Water Temperatures

Place Temperature
No Stations Reporting

Nearby Weather Stations